sensor_id;sensor_type;location;lat;lon;timestamp;P1;durP1;ratioP1;P2;durP2;ratioP2
56051;SDS011;41919;42.648;23.384;2023-10-19T00:00:04;11.65;;;6.35;;
56051;SDS011;41919;42.648;23.384;2023-10-19T00:02:45;11.68;;;7.07;;
56051;SDS011;41919;42.648;23.384;2023-10-19T00:05:16;13.13;;;6.80;;
56051;SDS011;41919;42.648;23.384;2023-10-19T00:07:42;11.70;;;7.20;;
56051;SDS011;41919;42.648;23.384;2023-10-19T00:10:08;11.77;;;6.80;;
56051;SDS011;41919;42.648;23.384;2023-10-19T00:12:34;11.93;;;7.30;;
56051;SDS011;41919;42.648;23.384;2023-10-19T00:15:00;11.60;;;7.00;;
56051;SDS011;41919;42.648;23.384;2023-10-19T00:17:28;12.45;;;6.90;;
56051;SDS011;41919;42.648;23.384;2023-10-19T00:19:55;11.77;;;6.43;;
56051;SDS011;41919;42.648;23.384;2023-10-19T00:22:43;9.50;;;5.53;;
56051;SDS011;41919;42.648;23.384;2023-10-19T00:25:08;11.57;;;6.53;;
56051;SDS011;41919;42.648;23.384;2023-10-19T00:27:38;9.65;;;6.25;;
56051;SDS011;41919;42.648;23.384;2023-10-19T00:30:04;10.32;;;6.28;;
56051;SDS011;41919;42.648;23.384;2023-10-19T00:32:35;11.82;;;6.68;;
56051;SDS011;41919;42.648;23.384;2023-10-19T00:35:04;11.52;;;6.53;;
56051;SDS011;41919;42.648;23.384;2023-10-19T00:37:46;12.68;;;6.80;;
56051;SDS011;41919;42.648;23.384;2023-10-19T00:40:12;12.38;;;6.57;;
56051;SDS011;41919;42.648;23.384;2023-10-19T00:42:52;10.65;;;6.82;;
56051;SDS011;41919;42.648;23.384;2023-10-19T00:45:20;9.68;;;7.03;;
56051;SDS011;41919;42.648;23.384;2023-10-19T00:47:51;8.57;;;5.82;;
56051;SDS011;41919;42.648;23.384;2023-10-19T00:50:18;10.65;;;5.97;;
56051;SDS011;41919;42.648;23.384;2023-10-19T00:52:47;9.48;;;6.63;;
56051;SDS011;41919;42.648;23.384;2023-10-19T00:55:16;9.98;;;6.47;;
56051;SDS011;41919;42.648;23.384;2023-10-19T00:57:46;12.45;;;7.05;;
56051;SDS011;41919;42.648;23.384;2023-10-19T01:00:14;9.90;;;6.07;;
56051;SDS011;41919;42.648;23.384;2023-10-19T01:02:57;10.55;;;7.35;;
56051;SDS011;41919;42.648;23.384;2023-10-19T01:05:25;10.85;;;6.57;;
56051;SDS011;41919;42.648;23.384;2023-10-19T01:07:57;11.00;;;6.60;;
56051;SDS011;41919;42.648;23.384;2023-10-19T01:10:26;9.38;;;6.28;;
56051;SDS011;41919;42.648;23.384;2023-10-19T01:12:53;10.65;;;5.88;;
56051;SDS011;41919;42.648;23.384;2023-10-19T01:15:19;10.60;;;6.03;;
56051;SDS011;41919;42.648;23.384;2023-10-19T01:17:58;12.82;;;7.15;;
56051;SDS011;41919;42.648;23.384;2023-10-19T01:20:28;11.90;;;6.40;;
56051;SDS011;41919;42.648;23.384;2023-10-19T01:23:01;11.88;;;7.63;;
56051;SDS011;41919;42.648;23.384;2023-10-19T01:30:45;11.18;;;7.05;;
56051;SDS011;41919;42.648;23.384;2023-10-19T01:33:16;9.50;;;6.03;;
56051;SDS011;41919;42.648;23.384;2023-10-19T01:35:44;11.88;;;5.90;;
56051;SDS011;41919;42.648;23.384;2023-10-19T01:38:28;9.82;;;5.53;;
56051;SDS011;41919;42.648;23.384;2023-10-19T01:40:57;8.60;;;5.70;;
56051;SDS011;41919;42.648;23.384;2023-10-19T01:43:29;9.00;;;5.85;;
56051;SDS011;41919;42.648;23.384;2023-10-19T01:45:58;8.93;;;5.93;;
56051;SDS011;41919;42.648;23.384;2023-10-19T01:48:36;10.20;;;6.28;;
56051;SDS011;41919;42.648;23.384;2023-10-19T01:51:04;7.95;;;5.38;;
56051;SDS011;41919;42.648;23.384;2023-10-19T01:53:30;8.23;;;5.90;;
56051;SDS011;41919;42.648;23.384;2023-10-19T01:55:57;8.20;;;5.88;;
56051;SDS011;41919;42.648;23.384;2023-10-19T01:58:25;9.40;;;6.50;;
56051;SDS011;41919;42.648;23.384;2023-10-19T02:00:53;8.60;;;5.93;;
56051;SDS011;41919;42.648;23.384;2023-10-19T02:03:31;11.77;;;4.82;;
56051;SDS011;41919;42.648;23.384;2023-10-19T02:06:03;10.05;;;5.43;;
56051;SDS011;41919;42.648;23.384;2023-10-19T02:08:54;8.23;;;5.35;;
56051;SDS011;41919;42.648;23.384;2023-10-19T02:11:25;8.88;;;5.47;;
56051;SDS011;41919;42.648;23.384;2023-10-19T02:13:51;7.05;;;5.05;;
56051;SDS011;41919;42.648;23.384;2023-10-19T02:16:20;8.38;;;5.72;;
56051;SDS011;41919;42.648;23.384;2023-10-19T02:18:49;8.82;;;5.35;;
56051;SDS011;41919;42.648;23.384;2023-10-19T02:21:15;7.88;;;5.70;;
56051;SDS011;41919;42.648;23.384;2023-10-19T02:23:46;7.38;;;5.30;;
56051;SDS011;41919;42.648;23.384;2023-10-19T02:26:15;9.10;;;5.68;;
56051;SDS011;41919;42.648;23.384;2023-10-19T02:28:45;8.27;;;5.25;;
56051;SDS011;41919;42.648;23.384;2023-10-19T02:31:17;8.20;;;5.25;;
56051;SDS011;41919;42.648;23.384;2023-10-19T02:33:45;7.18;;;5.20;;
56051;SDS011;41919;42.648;23.384;2023-10-19T02:36:14;10.45;;;6.05;;
56051;SDS011;41919;42.648;23.384;2023-10-19T02:38:41;8.90;;;6.00;;
56051;SDS011;41919;42.648;23.384;2023-10-19T02:41:14;8.30;;;5.22;;
56051;SDS011;41919;42.648;23.384;2023-10-19T02:43:41;8.00;;;5.05;;
56051;SDS011;41919;42.648;23.384;2023-10-19T02:46:10;11.52;;;5.70;;
56051;SDS011;41919;42.648;23.384;2023-10-19T02:48:36;10.48;;;6.63;;
56051;SDS011;41919;42.648;23.384;2023-10-19T02:51:01;8.18;;;5.68;;
56051;SDS011;41919;42.648;23.384;2023-10-19T02:53:33;11.80;;;6.47;;
56051;SDS011;41919;42.648;23.384;2023-10-19T02:55:59;8.35;;;5.90;;
56051;SDS011;41919;42.648;23.384;2023-10-19T02:58:30;11.45;;;5.97;;
56051;SDS011;41919;42.648;23.384;2023-10-19T03:00:56;11.60;;;7.00;;
56051;SDS011;41919;42.648;23.384;2023-10-19T03:03:22;9.20;;;6.03;;
56051;SDS011;41919;42.648;23.384;2023-10-19T03:05:48;10.15;;;5.80;;
56051;SDS011;41919;42.648;23.384;2023-10-19T03:08:13;9.32;;;6.43;;
56051;SDS011;41919;42.648;23.384;2023-10-19T03:10:40;9.60;;;5.35;;
56051;SDS011;41919;42.648;23.384;2023-10-19T03:13:09;8.85;;;5.70;;
56051;SDS011;41919;42.648;23.384;2023-10-19T03:15:34;8.95;;;5.40;;
56051;SDS011;41919;42.648;23.384;2023-10-19T03:18:01;7.95;;;5.10;;
56051;SDS011;41919;42.648;23.384;2023-10-19T03:20:28;8.48;;;4.85;;
56051;SDS011;41919;42.648;23.384;2023-10-19T03:22:58;7.15;;;4.60;;
56051;SDS011;41919;42.648;23.384;2023-10-19T03:25:26;7.28;;;4.68;;
56051;SDS011;41919;42.648;23.384;2023-10-19T03:28:10;8.10;;;4.63;;
56051;SDS011;41919;42.648;23.384;2023-10-19T03:30:41;7.90;;;5.05;;
56051;SDS011;41919;42.648;23.384;2023-10-19T03:33:07;6.85;;;4.45;;
56051;SDS011;41919;42.648;23.384;2023-10-19T03:35:35;6.25;;;4.07;;
56051;SDS011;41919;42.648;23.384;2023-10-19T03:38:06;7.30;;;4.10;;
56051;SDS011;41919;42.648;23.384;2023-10-19T03:40:43;9.60;;;4.95;;
56051;SDS011;41919;42.648;23.384;2023-10-19T03:43:17;7.60;;;4.60;;
56051;SDS011;41919;42.648;23.384;2023-10-19T03:45:44;7.90;;;5.22;;
56051;SDS011;41919;42.648;23.384;2023-10-19T03:48:17;10.10;;;5.38;;
56051;SDS011;41919;42.648;23.384;2023-10-19T03:50:51;8.90;;;5.07;;
56051;SDS011;41919;42.648;23.384;2023-10-19T03:53:20;9.10;;;4.82;;
56051;SDS011;41919;42.648;23.384;2023-10-19T03:55:46;8.48;;;5.03;;
56051;SDS011;41919;42.648;23.384;2023-10-19T03:58:12;7.35;;;4.55;;
56051;SDS011;41919;42.648;23.384;2023-10-19T04:00:38;8.80;;;4.43;;
56051;SDS011;41919;42.648;23.384;2023-10-19T04:03:04;8.50;;;4.68;;
56051;SDS011;41919;42.648;23.384;2023-10-19T04:05:29;9.88;;;5.05;;
56051;SDS011;41919;42.648;23.384;2023-10-19T04:07:56;7.95;;;4.22;;
56051;SDS011;41919;42.648;23.384;2023-10-19T04:10:30;7.95;;;4.68;;
56051;SDS011;41919;42.648;23.384;2023-10-19T04:13:03;7.60;;;4.75;;
56051;SDS011;41919;42.648;23.384;2023-10-19T04:15:29;8.63;;;4.80;;
56051;SDS011;41919;42.648;23.384;2023-10-19T04:17:58;7.20;;;4.72;;
56051;SDS011;41919;42.648;23.384;2023-10-19T04:20:25;7.80;;;4.45;;
56051;SDS011;41919;42.648;23.384;2023-10-19T04:22:51;7.57;;;4.68;;
56051;SDS011;41919;42.648;23.384;2023-10-19T04:25:17;6.95;;;4.10;;
56051;SDS011;41919;42.648;23.384;2023-10-19T04:27:50;5.75;;;3.60;;
56051;SDS011;41919;42.648;23.384;2023-10-19T04:30:17;6.38;;;3.97;;
56051;SDS011;41919;42.648;23.384;2023-10-19T04:32:52;5.82;;;3.33;;
56051;SDS011;41919;42.648;23.384;2023-10-19T04:35:19;7.20;;;4.00;;
56051;SDS011;41919;42.648;23.384;2023-10-19T04:37:53;8.00;;;4.65;;
56051;SDS011;41919;42.648;23.384;2023-10-19T04:40:19;6.07;;;4.07;;
56051;SDS011;41919;42.648;23.384;2023-10-19T04:42:45;7.40;;;3.95;;
56051;SDS011;41919;42.648;23.384;2023-10-19T04:45:11;5.93;;;3.58;;
56051;SDS011;41919;42.648;23.384;2023-10-19T04:47:37;5.70;;;3.30;;
56051;SDS011;41919;42.648;23.384;2023-10-19T04:50:04;6.78;;;4.18;;
56051;SDS011;41919;42.648;23.384;2023-10-19T04:52:31;6.85;;;3.90;;
56051;SDS011;41919;42.648;23.384;2023-10-19T04:54:57;15.82;;;8.27;;
56051;SDS011;41919;42.648;23.384;2023-10-19T04:57:23;8.30;;;5.03;;
56051;SDS011;41919;42.648;23.384;2023-10-19T04:59:51;4.18;;;3.40;;
56051;SDS011;41919;42.648;23.384;2023-10-19T05:02:16;7.43;;;4.03;;
56051;SDS011;41919;42.648;23.384;2023-10-19T05:04:42;5.47;;;3.28;;
56051;SDS011;41919;42.648;23.384;2023-10-19T05:07:08;5.03;;;3.10;;
56051;SDS011;41919;42.648;23.384;2023-10-19T05:09:37;5.53;;;3.38;;
56051;SDS011;41919;42.648;23.384;2023-10-19T05:12:05;4.93;;;3.17;;
56051;SDS011;41919;42.648;23.384;2023-10-19T05:14:37;5.78;;;3.25;;
56051;SDS011;41919;42.648;23.384;2023-10-19T05:17:07;6.32;;;3.75;;
56051;SDS011;41919;42.648;23.384;2023-10-19T05:19:36;7.18;;;3.88;;
56051;SDS011;41919;42.648;23.384;2023-10-19T05:22:03;6.30;;;3.20;;
56051;SDS011;41919;42.648;23.384;2023-10-19T05:24:33;5.80;;;4.00;;
56051;SDS011;41919;42.648;23.384;2023-10-19T05:26:59;4.30;;;2.80;;
56051;SDS011;41919;42.648;23.384;2023-10-19T05:29:25;6.30;;;3.35;;
56051;SDS011;41919;42.648;23.384;2023-10-19T05:31:51;3.42;;;2.75;;
56051;SDS011;41919;42.648;23.384;2023-10-19T05:34:25;5.55;;;3.03;;
56051;SDS011;41919;42.648;23.384;2023-10-19T05:37:01;3.88;;;2.50;;
56051;SDS011;41919;42.648;23.384;2023-10-19T05:39:31;3.20;;;2.85;;
56051;SDS011;41919;42.648;23.384;2023-10-19T05:41:58;8.63;;;5.35;;
56051;SDS011;41919;42.648;23.384;2023-10-19T05:44:27;5.60;;;3.53;;
56051;SDS011;41919;42.648;23.384;2023-10-19T05:46:55;4.20;;;2.90;;
56051;SDS011;41919;42.648;23.384;2023-10-19T05:49:23;4.25;;;3.20;;
56051;SDS011;41919;42.648;23.384;2023-10-19T05:51:49;3.45;;;2.72;;
56051;SDS011;41919;42.648;23.384;2023-10-19T05:54:15;4.85;;;3.17;;
56051;SDS011;41919;42.648;23.384;2023-10-19T05:56:41;3.10;;;2.67;;
56051;SDS011;41919;42.648;23.384;2023-10-19T05:59:07;3.55;;;2.92;;
56051;SDS011;41919;42.648;23.384;2023-10-19T06:01:34;4.32;;;3.20;;
56051;SDS011;41919;42.648;23.384;2023-10-19T06:04:00;3.53;;;2.90;;
56051;SDS011;41919;42.648;23.384;2023-10-19T06:06:26;6.22;;;3.08;;
56051;SDS011;41919;42.648;23.384;2023-10-19T06:08:51;4.60;;;3.17;;
56051;SDS011;41919;42.648;23.384;2023-10-19T06:11:18;6.88;;;4.20;;
56051;SDS011;41919;42.648;23.384;2023-10-19T06:13:45;7.28;;;4.40;;
56051;SDS011;41919;42.648;23.384;2023-10-19T06:16:11;6.32;;;3.53;;
56051;SDS011;41919;42.648;23.384;2023-10-19T06:18:36;5.40;;;3.08;;
56051;SDS011;41919;42.648;23.384;2023-10-19T06:21:02;5.22;;;3.75;;
56051;SDS011;41919;42.648;23.384;2023-10-19T06:23:29;4.35;;;3.00;;
56051;SDS011;41919;42.648;23.384;2023-10-19T06:25:56;4.40;;;3.22;;
56051;SDS011;41919;42.648;23.384;2023-10-19T06:28:21;6.18;;;3.47;;
56051;SDS011;41919;42.648;23.384;2023-10-19T06:30:47;6.20;;;3.95;;
56051;SDS011;41919;42.648;23.384;2023-10-19T06:33:13;6.43;;;4.50;;
56051;SDS011;41919;42.648;23.384;2023-10-19T06:35:38;6.57;;;4.90;;
56051;SDS011;41919;42.648;23.384;2023-10-19T06:38:05;9.20;;;6.50;;
56051;SDS011;41919;42.648;23.384;2023-10-19T06:40:33;14.57;;;6.93;;
56051;SDS011;41919;42.648;23.384;2023-10-19T06:43:01;7.28;;;4.90;;
56051;SDS011;41919;42.648;23.384;2023-10-19T06:45:28;8.85;;;5.60;;
56051;SDS011;41919;42.648;23.384;2023-10-19T06:47:55;8.32;;;5.50;;
56051;SDS011;41919;42.648;23.384;2023-10-19T06:50:21;6.57;;;4.70;;
56051;SDS011;41919;42.648;23.384;2023-10-19T06:52:48;5.85;;;3.92;;
56051;SDS011;41919;42.648;23.384;2023-10-19T06:55:15;6.57;;;4.25;;
56051;SDS011;41919;42.648;23.384;2023-10-19T06:57:48;7.28;;;4.13;;
56051;SDS011;41919;42.648;23.384;2023-10-19T07:00:16;6.05;;;4.15;;
56051;SDS011;41919;42.648;23.384;2023-10-19T07:02:46;6.53;;;4.35;;
56051;SDS011;41919;42.648;23.384;2023-10-19T07:05:16;4.95;;;3.95;;
56051;SDS011;41919;42.648;23.384;2023-10-19T07:07:55;6.43;;;4.25;;
56051;SDS011;41919;42.648;23.384;2023-10-19T07:10:21;4.13;;;3.30;;
56051;SDS011;41919;42.648;23.384;2023-10-19T07:12:50;5.07;;;3.72;;
56051;SDS011;41919;42.648;23.384;2023-10-19T07:15:18;4.40;;;3.17;;
56051;SDS011;41919;42.648;23.384;2023-10-19T07:17:44;3.97;;;3.05;;
56051;SDS011;41919;42.648;23.384;2023-10-19T07:20:14;11.27;;;6.75;;
56051;SDS011;41919;42.648;23.384;2023-10-19T07:23:00;4.47;;;3.22;;
56051;SDS011;41919;42.648;23.384;2023-10-19T07:25:35;3.35;;;3.05;;
56051;SDS011;41919;42.648;23.384;2023-10-19T07:28:14;4.07;;;3.33;;
56051;SDS011;41919;42.648;23.384;2023-10-19T07:30:41;3.72;;;3.17;;
56051;SDS011;41919;42.648;23.384;2023-10-19T07:33:08;2.97;;;2.53;;
56051;SDS011;41919;42.648;23.384;2023-10-19T07:35:35;3.95;;;3.00;;
56051;SDS011;41919;42.648;23.384;2023-10-19T07:38:04;3.80;;;2.88;;
56051;SDS011;41919;42.648;23.384;2023-10-19T07:40:30;3.88;;;3.30;;
56051;SDS011;41919;42.648;23.384;2023-10-19T07:42:55;3.03;;;2.72;;
56051;SDS011;41919;42.648;23.384;2023-10-19T07:45:21;4.25;;;3.47;;
56051;SDS011;41919;42.648;23.384;2023-10-19T07:47:47;6.35;;;3.05;;
56051;SDS011;41919;42.648;23.384;2023-10-19T07:50:13;5.03;;;3.05;;
56051;SDS011;41919;42.648;23.384;2023-10-19T07:52:42;4.32;;;3.67;;
56051;SDS011;41919;42.648;23.384;2023-10-19T07:55:09;5.47;;;4.20;;
56051;SDS011;41919;42.648;23.384;2023-10-19T07:57:35;4.72;;;4.20;;
56051;SDS011;41919;42.648;23.384;2023-10-19T08:00:00;6.45;;;4.47;;
56051;SDS011;41919;42.648;23.384;2023-10-19T08:02:26;5.82;;;4.18;;
56051;SDS011;41919;42.648;23.384;2023-10-19T08:04:51;10.05;;;5.18;;
56051;SDS011;41919;42.648;23.384;2023-10-19T08:07:17;7.82;;;5.80;;
56051;SDS011;41919;42.648;23.384;2023-10-19T08:09:43;7.03;;;5.80;;
56051;SDS011;41919;42.648;23.384;2023-10-19T08:12:09;7.95;;;6.20;;
56051;SDS011;41919;42.648;23.384;2023-10-19T08:14:35;9.65;;;6.57;;
56051;SDS011;41919;42.648;23.384;2023-10-19T08:17:01;8.30;;;5.68;;
56051;SDS011;41919;42.648;23.384;2023-10-19T08:19:28;6.25;;;5.63;;
56051;SDS011;41919;42.648;23.384;2023-10-19T08:21:56;7.35;;;5.82;;
56051;SDS011;41919;42.648;23.384;2023-10-19T08:24:22;8.13;;;6.47;;
56051;SDS011;41919;42.648;23.384;2023-10-19T08:26:48;12.15;;;7.05;;
56051;SDS011;41919;42.648;23.384;2023-10-19T08:29:14;7.80;;;6.40;;
56051;SDS011;41919;42.648;23.384;2023-10-19T08:31:43;8.27;;;6.35;;
56051;SDS011;41919;42.648;23.384;2023-10-19T08:34:12;7.80;;;6.70;;
56051;SDS011;41919;42.648;23.384;2023-10-19T08:36:38;8.50;;;5.80;;
56051;SDS011;41919;42.648;23.384;2023-10-19T08:39:04;6.60;;;5.88;;
56051;SDS011;41919;42.648;23.384;2023-10-19T08:41:31;8.82;;;5.88;;
56051;SDS011;41919;42.648;23.384;2023-10-19T08:44:00;7.40;;;6.25;;
56051;SDS011;41919;42.648;23.384;2023-10-19T08:46:27;8.35;;;4.25;;
56051;SDS011;41919;42.648;23.384;2023-10-19T08:48:53;5.47;;;4.88;;
56051;SDS011;41919;42.648;23.384;2023-10-19T08:51:21;4.63;;;3.95;;
56051;SDS011;41919;42.648;23.384;2023-10-19T08:53:50;5.55;;;4.70;;
56051;SDS011;41919;42.648;23.384;2023-10-19T08:56:18;6.90;;;4.57;;
56051;SDS011;41919;42.648;23.384;2023-10-19T08:58:48;4.55;;;4.15;;
56051;SDS011;41919;42.648;23.384;2023-10-19T09:01:14;5.20;;;4.57;;
56051;SDS011;41919;42.648;23.384;2023-10-19T09:03:40;4.85;;;4.40;;
56051;SDS011;41919;42.648;23.384;2023-10-19T09:06:06;6.60;;;5.03;;
56051;SDS011;41919;42.648;23.384;2023-10-19T09:08:32;7.47;;;4.88;;
56051;SDS011;41919;42.648;23.384;2023-10-19T09:11:07;7.15;;;4.50;;
56051;SDS011;41919;42.648;23.384;2023-10-19T09:13:44;8.05;;;4.80;;
56051;SDS011;41919;42.648;23.384;2023-10-19T09:16:14;6.22;;;4.65;;
56051;SDS011;41919;42.648;23.384;2023-10-19T09:18:40;8.18;;;5.28;;
56051;SDS011;41919;42.648;23.384;2023-10-19T09:21:06;5.70;;;5.10;;
56051;SDS011;41919;42.648;23.384;2023-10-19T09:23:32;7.53;;;5.07;;
56051;SDS011;41919;42.648;23.384;2023-10-19T09:26:00;7.75;;;4.82;;
56051;SDS011;41919;42.648;23.384;2023-10-19T09:28:30;5.30;;;4.63;;
56051;SDS011;41919;42.648;23.384;2023-10-19T09:30:58;6.70;;;5.03;;
56051;SDS011;41919;42.648;23.384;2023-10-19T09:33:25;6.32;;;5.70;;
56051;SDS011;41919;42.648;23.384;2023-10-19T09:35:52;9.05;;;5.30;;
56051;SDS011;41919;42.648;23.384;2023-10-19T09:38:20;5.88;;;4.53;;
56051;SDS011;41919;42.648;23.384;2023-10-19T09:40:51;10.07;;;5.80;;
56051;SDS011;41919;42.648;23.384;2023-10-19T09:43:30;5.53;;;4.45;;
56051;SDS011;41919;42.648;23.384;2023-10-19T09:46:00;8.80;;;4.75;;
56051;SDS011;41919;42.648;23.384;2023-10-19T09:48:31;6.18;;;4.80;;
56051;SDS011;41919;42.648;23.384;2023-10-19T09:51:00;7.18;;;4.88;;
56051;SDS011;41919;42.648;23.384;2023-10-19T09:53:28;7.72;;;5.20;;
56051;SDS011;41919;42.648;23.384;2023-10-19T09:55:58;10.20;;;5.90;;
56051;SDS011;41919;42.648;23.384;2023-10-19T09:58:25;11.10;;;5.43;;
56051;SDS011;41919;42.648;23.384;2023-10-19T10:00:56;8.68;;;5.43;;
56051;SDS011;41919;42.648;23.384;2023-10-19T10:06:17;7.15;;;5.10;;
56051;SDS011;41919;42.648;23.384;2023-10-19T10:08:52;6.75;;;5.55;;
56051;SDS011;41919;42.648;23.384;2023-10-19T10:13:44;8.82;;;5.45;;
56051;SDS011;41919;42.648;23.384;2023-10-19T10:16:12;7.78;;;4.97;;
56051;SDS011;41919;42.648;23.384;2023-10-19T10:18:39;6.28;;;4.93;;
56051;SDS011;41919;42.648;23.384;2023-10-19T10:21:12;6.45;;;5.13;;
56051;SDS011;41919;42.648;23.384;2023-10-19T10:23:53;7.10;;;5.53;;
56051;SDS011;41919;42.648;23.384;2023-10-19T10:26:21;6.80;;;5.78;;
56051;SDS011;41919;42.648;23.384;2023-10-19T10:31:34;6.03;;;5.15;;
56051;SDS011;41919;42.648;23.384;2023-10-19T10:34:05;6.53;;;5.07;;
56051;SDS011;41919;42.648;23.384;2023-10-19T10:36:56;5.88;;;4.80;;
56051;SDS011;41919;42.648;23.384;2023-10-19T10:39:25;6.68;;;5.20;;
56051;SDS011;41919;42.648;23.384;2023-10-19T10:42:00;6.07;;;5.10;;
56051;SDS011;41919;42.648;23.384;2023-10-19T10:44:37;7.85;;;5.22;;
56051;SDS011;41919;42.648;23.384;2023-10-19T10:47:18;7.25;;;5.70;;
56051;SDS011;41919;42.648;23.384;2023-10-19T10:55:08;8.35;;;5.47;;
56051;SDS011;41919;42.648;23.384;2023-10-19T10:57:39;9.40;;;5.50;;
56051;SDS011;41919;42.648;23.384;2023-10-19T11:00:06;7.60;;;6.28;;
56051;SDS011;41919;42.648;23.384;2023-10-19T11:02:34;11.57;;;6.10;;
56051;SDS011;41919;42.648;23.384;2023-10-19T11:05:00;8.85;;;6.88;;
56051;SDS011;41919;42.648;23.384;2023-10-19T11:07:26;9.98;;;5.68;;
56051;SDS011;41919;42.648;23.384;2023-10-19T11:09:51;8.20;;;5.55;;
56051;SDS011;41919;42.648;23.384;2023-10-19T11:12:17;9.05;;;5.38;;
56051;SDS011;41919;42.648;23.384;2023-10-19T11:17:26;8.68;;;5.80;;
56051;SDS011;41919;42.648;23.384;2023-10-19T11:19:57;7.32;;;5.40;;
56051;SDS011;41919;42.648;23.384;2023-10-19T11:22:25;8.43;;;5.43;;
56051;SDS011;41919;42.648;23.384;2023-10-19T11:24:54;7.15;;;5.63;;
56051;SDS011;41919;42.648;23.384;2023-10-19T11:32:21;13.70;;;6.07;;
56051;SDS011;41919;42.648;23.384;2023-10-19T11:34:47;8.27;;;5.95;;
56051;SDS011;41919;42.648;23.384;2023-10-19T11:37:13;13.32;;;5.25;;
56051;SDS011;41919;42.648;23.384;2023-10-19T11:39:38;10.55;;;5.60;;
56051;SDS011;41919;42.648;23.384;2023-10-19T11:42:04;33.58;;;19.15;;
56051;SDS011;41919;42.648;23.384;2023-10-19T11:44:29;11.38;;;6.80;;
56051;SDS011;41919;42.648;23.384;2023-10-19T11:46:55;9.85;;;5.13;;
56051;SDS011;41919;42.648;23.384;2023-10-19T11:49:23;12.50;;;7.93;;
56051;SDS011;41919;42.648;23.384;2023-10-19T11:51:49;8.93;;;5.85;;
56051;SDS011;41919;42.648;23.384;2023-10-19T11:54:14;8.65;;;6.28;;
56051;SDS011;41919;42.648;23.384;2023-10-19T11:56:41;7.93;;;5.85;;
56051;SDS011;41919;42.648;23.384;2023-10-19T11:59:06;8.48;;;6.32;;
56051;SDS011;41919;42.648;23.384;2023-10-19T12:01:32;7.93;;;5.85;;
56051;SDS011;41919;42.648;23.384;2023-10-19T12:03:57;10.75;;;5.93;;
56051;SDS011;41919;42.648;23.384;2023-10-19T12:06:23;8.15;;;5.88;;
56051;SDS011;41919;42.648;23.384;2023-10-19T12:08:49;9.05;;;6.47;;
56051;SDS011;41919;42.648;23.384;2023-10-19T12:11:14;7.43;;;5.38;;
56051;SDS011;41919;42.648;23.384;2023-10-19T12:13:44;7.53;;;5.13;;
56051;SDS011;41919;42.648;23.384;2023-10-19T12:16:10;7.85;;;5.80;;
56051;SDS011;41919;42.648;23.384;2023-10-19T12:18:42;7.25;;;5.05;;
56051;SDS011;41919;42.648;23.384;2023-10-19T12:21:08;10.57;;;5.72;;
56051;SDS011;41919;42.648;23.384;2023-10-19T12:23:40;5.32;;;4.63;;
56051;SDS011;41919;42.648;23.384;2023-10-19T12:26:10;6.18;;;4.90;;
56051;SDS011;41919;42.648;23.384;2023-10-19T12:28:38;10.15;;;5.10;;
56051;SDS011;41919;42.648;23.384;2023-10-19T12:31:05;7.55;;;4.63;;
56051;SDS011;41919;42.648;23.384;2023-10-19T12:33:33;5.40;;;4.70;;
56051;SDS011;41919;42.648;23.384;2023-10-19T12:36:00;6.57;;;4.45;;
56051;SDS011;41919;42.648;23.384;2023-10-19T12:38:25;7.43;;;4.30;;
56051;SDS011;41919;42.648;23.384;2023-10-19T12:40:51;8.63;;;4.57;;
56051;SDS011;41919;42.648;23.384;2023-10-19T12:43:17;5.18;;;4.05;;
56051;SDS011;41919;42.648;23.384;2023-10-19T12:45:50;5.43;;;4.23;;
56051;SDS011;41919;42.648;23.384;2023-10-19T12:48:16;7.05;;;4.00;;
56051;SDS011;41919;42.648;23.384;2023-10-19T12:50:42;9.65;;;4.28;;
56051;SDS011;41919;42.648;23.384;2023-10-19T12:53:08;5.15;;;4.07;;
56051;SDS011;41919;42.648;23.384;2023-10-19T12:55:34;6.63;;;4.40;;
56051;SDS011;41919;42.648;23.384;2023-10-19T12:58:02;5.68;;;4.32;;
56051;SDS011;41919;42.648;23.384;2023-10-19T13:00:34;6.82;;;4.50;;
56051;SDS011;41919;42.648;23.384;2023-10-19T13:03:08;4.82;;;4.10;;
56051;SDS011;41919;42.648;23.384;2023-10-19T13:05:38;4.65;;;4.07;;
56051;SDS011;41919;42.648;23.384;2023-10-19T13:08:06;6.57;;;4.57;;
56051;SDS011;41919;42.648;23.384;2023-10-19T13:10:34;8.98;;;4.70;;
56051;SDS011;41919;42.648;23.384;2023-10-19T13:13:03;5.93;;;4.50;;
56051;SDS011;41919;42.648;23.384;2023-10-19T13:15:33;6.72;;;4.22;;
56051;SDS011;41919;42.648;23.384;2023-10-19T13:18:00;6.57;;;3.58;;
56051;SDS011;41919;42.648;23.384;2023-10-19T13:20:27;4.35;;;3.95;;
56051;SDS011;41919;42.648;23.384;2023-10-19T13:22:58;6.22;;;3.25;;
56051;SDS011;41919;42.648;23.384;2023-10-19T13:25:24;4.75;;;3.75;;
56051;SDS011;41919;42.648;23.384;2023-10-19T13:28:09;6.00;;;4.40;;
56051;SDS011;41919;42.648;23.384;2023-10-19T13:30:35;4.75;;;3.95;;
56051;SDS011;41919;42.648;23.384;2023-10-19T13:33:08;5.65;;;4.00;;
56051;SDS011;41919;42.648;23.384;2023-10-19T13:35:35;5.07;;;3.25;;
56051;SDS011;41919;42.648;23.384;2023-10-19T13:38:02;3.75;;;3.42;;
56051;SDS011;41919;42.648;23.384;2023-10-19T13:40:29;7.35;;;3.70;;
56051;SDS011;41919;42.648;23.384;2023-10-19T13:42:55;7.57;;;3.50;;
56051;SDS011;41919;42.648;23.384;2023-10-19T13:45:21;6.13;;;3.70;;
56051;SDS011;41919;42.648;23.384;2023-10-19T13:47:48;6.80;;;3.40;;
56051;SDS011;41919;42.648;23.384;2023-10-19T13:50:14;4.53;;;3.20;;
56051;SDS011;41919;42.648;23.384;2023-10-19T13:52:40;5.55;;;4.43;;
56051;SDS011;41919;42.648;23.384;2023-10-19T13:55:09;8.18;;;5.63;;
56051;SDS011;41919;42.648;23.384;2023-10-19T13:57:37;5.05;;;3.75;;
56051;SDS011;41919;42.648;23.384;2023-10-19T14:00:02;6.45;;;5.28;;
56051;SDS011;41919;42.648;23.384;2023-10-19T14:02:33;6.05;;;4.38;;
56051;SDS011;41919;42.648;23.384;2023-10-19T14:04:58;5.38;;;3.50;;
56051;SDS011;41919;42.648;23.384;2023-10-19T14:07:25;7.32;;;3.63;;
56051;SDS011;41919;42.648;23.384;2023-10-19T14:09:50;6.28;;;3.97;;
56051;SDS011;41919;42.648;23.384;2023-10-19T14:12:17;7.32;;;3.50;;
56051;SDS011;41919;42.648;23.384;2023-10-19T14:14:42;7.03;;;3.55;;
56051;SDS011;41919;42.648;23.384;2023-10-19T14:17:08;10.43;;;3.50;;
56051;SDS011;41919;42.648;23.384;2023-10-19T14:19:34;4.75;;;3.17;;
56051;SDS011;41919;42.648;23.384;2023-10-19T14:21:59;4.78;;;3.47;;
56051;SDS011;41919;42.648;23.384;2023-10-19T14:24:25;3.85;;;3.08;;
56051;SDS011;41919;42.648;23.384;2023-10-19T14:26:50;5.47;;;3.60;;
56051;SDS011;41919;42.648;23.384;2023-10-19T14:29:16;4.05;;;3.05;;
56051;SDS011;41919;42.648;23.384;2023-10-19T14:31:41;6.82;;;3.20;;
56051;SDS011;41919;42.648;23.384;2023-10-19T14:34:07;4.15;;;3.08;;
56051;SDS011;41919;42.648;23.384;2023-10-19T14:36:33;5.32;;;3.05;;
56051;SDS011;41919;42.648;23.384;2023-10-19T14:38:58;4.78;;;3.10;;
56051;SDS011;41919;42.648;23.384;2023-10-19T14:41:24;6.65;;;3.38;;
56051;SDS011;41919;42.648;23.384;2023-10-19T14:43:49;4.13;;;2.90;;
56051;SDS011;41919;42.648;23.384;2023-10-19T14:46:14;3.40;;;3.10;;
56051;SDS011;41919;42.648;23.384;2023-10-19T14:48:41;5.50;;;3.30;;
56051;SDS011;41919;42.648;23.384;2023-10-19T14:51:06;3.38;;;2.90;;
56051;SDS011;41919;42.648;23.384;2023-10-19T14:53:32;3.55;;;3.25;;
56051;SDS011;41919;42.648;23.384;2023-10-19T14:55:58;4.65;;;3.03;;
56051;SDS011;41919;42.648;23.384;2023-10-19T14:58:23;5.80;;;3.65;;
56051;SDS011;41919;42.648;23.384;2023-10-19T15:00:50;4.60;;;3.42;;
56051;SDS011;41919;42.648;23.384;2023-10-19T15:03:22;5.00;;;3.80;;
56051;SDS011;41919;42.648;23.384;2023-10-19T15:05:52;14.90;;;4.97;;